Skip Navigation LinksHome page > Weather > Current weather Skip Navigation Links

Current Weather

Heathrow, London

For information only: do not use for flight planning or navigation.
Latest weather
Observation time Tuesday, May 31, 2016 12:20 PM BST
Local time Tuesday, May 31, 2016 12:54 PM BST
Flight conditions Instrument Meteorological Conditions
Winds
Wind direction North (350°)
Winds variable from 310° to 30°
Wind speed 9 mph
Visibility 3 mi.
Present weather rain, recent rain
Sky condition
Ceiling 1,200 ft. broken clouds
Cloud layer few clouds 800 ft.
Cloud layer broken clouds 1,200 ft.
Temperature 52°F
Dewpoint 50°F
Altimeter 30.00 in.Hg
Derived measurements
Relative humidity 94%
Density altitude -397 ft.
Remarks
Corrected report.
METAR COR EGLL 311120Z 35008KT 310V030 4800 RA FEW008 BKN012 11/10 Q1016 RERA BECMG 6000 NSW

Settings

Location code

InnerDrive.Weather 4.0.5722.1 Release CLR 4.0.30319.34209
Copyright ©2015 Inner Drive Technology. All rights reserved. Portions Copyright ©1986-2015 David Braverman.

Find weather

Site navigation


Skip Navigation Links

Place info

Page info

PayPal - The safer, easier way to pay online!

Return home.

Copyright ©2016 Inner Drive Technology. Purveyors of fine, hand-crafted computer software. Page printed 2016-05-31T11:54:37 UTC.